Hopedale, Ohio
Current Conditions -  °F | °C
As of 11:53 AM on Tuesday 27 Jan 2015 (Local Time) from KHLG Reporting Station
Overcast Overcast  
Wind Chill: -12°   Ceiling: 1600
Heat Index: -6°   Visibility: 10mi
Dew Point: -9°   Wind: 9mph
Humidity: 78%   Direction: 280°W
Pressure: 29.95"   Gusts: NA
Location:  40.33°N, 80.9°W
Report Text: KHLG 271653Z 28008KT 10SM OVC016 M06/M09 A2995 RMK AO2 SNE29 SLP162 P0000 T10611094
Loading
Personal Weather Stations






























Interactive Weather Map New forecast layout! Learn more

10-Day Weather Forecast

Advertisements
Track Severe Weather on mobile